Time;durP1;ratioP1;P1;durP2;ratioP2;P2;SDS_P1;SDS_P2;PMS_P1;PMS_P2;Temp;Humidity;BMP_temperature;BMP_pressure;BME280_temperature;BME280_humidity;BME280_pressure;Samples;Min_cycle;Max_cycle;Signal;HPM_P1;HPM_P2
2021/03/10 00:00:07;;;;;;;52.83;26.90;;;;;;;2.95;81.25;94889.19;5068147;28;20051;-67
2021/03/10 00:02:37;;;;;;;44.33;26.23;;;;;;;2.98;81.34;94883.69;5067210;28;20056;-67
2021/03/10 00:05:06;;;;;;;49.22;25.60;;;;;;;2.98;81.34;94888.84;5068984;28;20059;-67
2021/03/10 00:07:33;;;;;;;50.78;25.98;;;;;;;2.97;80.84;94882.91;5066811;28;20049;-67
2021/03/10 00:09:59;;;;;;;46.63;25.05;;;;;;;2.99;81.12;94880.94;5067866;28;20745;-68
2021/03/10 00:12:27;;;;;;;37.47;21.50;;;;;;;3.01;80.85;94878.19;5066808;28;20044;-67
2021/03/10 00:14:53;;;;;;;37.28;20.92;;;;;;;3.03;80.87;94881.38;5067696;28;20041;-67
2021/03/10 00:17:19;;;;;;;37.75;21.05;;;;;;;3.08;80.84;94879.06;5064880;28;20462;-67
2021/03/10 00:19:46;;;;;;;36.35;21.13;;;;;;;3.07;80.72;94872.31;5066953;28;20040;-68
2021/03/10 00:22:13;;;;;;;30.45;20.10;;;;;;;3.09;80.76;94860.06;5068245;28;20040;-67
2021/03/10 00:24:39;;;;;;;37.25;20.58;;;;;;;3.09;80.89;94854.13;5066192;28;20516;-67
2021/03/10 00:27:06;;;;;;;34.78;20.25;;;;;;;3.14;79.95;94852.59;5066168;28;20115;-67
2021/03/10 00:29:32;;;;;;;34.58;20.98;;;;;;;3.12;80.18;94849.41;5069340;28;20075;-67
2021/03/10 00:31:59;;;;;;;38.47;21.58;;;;;;;3.17;79.81;94852.22;5065057;28;20024;-67
2021/03/10 00:34:25;;;;;;;35.65;20.67;;;;;;;3.15;79.13;94833.59;5068045;28;20048;-67
2021/03/10 00:36:51;;;;;;;40.22;22.85;;;;;;;3.25;78.47;94841.00;5066086;28;20102;-67
2021/03/10 00:39:18;;;;;;;34.20;19.77;;;;;;;3.29;78.74;94833.69;5066724;28;20090;-68
2021/03/10 00:41:44;;;;;;;39.53;21.65;;;;;;;3.11;78.40;94808.41;5066664;28;20513;-67
2021/03/10 00:44:11;;;;;;;32.60;21.58;;;;;;;3.18;78.67;94812.63;5066185;28;20060;-67
2021/03/10 00:46:37;;;;;;;37.25;21.70;;;;;;;3.30;78.63;94827.59;5065948;28;20052;-67
2021/03/10 00:49:04;;;;;;;37.83;22.90;;;;;;;3.29;78.80;94823.41;5066243;28;20131;-67
2021/03/10 00:51:30;;;;;;;39.03;23.13;;;;;;;3.24;78.80;94817.03;5066864;28;20035;-68
2021/03/10 00:53:56;;;;;;;37.33;21.30;;;;;;;3.22;78.84;94806.13;5067291;28;20052;-67
2021/03/10 00:56:22;;;;;;;42.33;23.25;;;;;;;3.27;78.51;94812.50;5066527;28;20055;-67
2021/03/10 00:58:50;;;;;;;42.50;22.67;;;;;;;3.23;78.92;94815.44;5064998;28;20055;-67
2021/03/10 01:01:17;;;;;;;40.30;23.05;;;;;;;3.11;78.90;94792.97;5066227;28;20036;-67
2021/03/10 01:03:43;;;;;;;37.13;22.60;;;;;;;3.24;79.15;94811.91;5066271;28;20060;-67
2021/03/10 01:06:10;;;;;;;46.08;23.33;;;;;;;3.24;79.06;94817.03;5067329;28;20040;-67
2021/03/10 01:08:36;;;;;;;39.78;22.63;;;;;;;3.27;79.91;94809.94;5065747;28;20101;-67
2021/03/10 01:11:03;;;;;;;38.45;21.23;;;;;;;3.24;79.67;94803.34;5067165;28;20032;-67
2021/03/10 01:13:30;;;;;;;49.85;23.85;;;;;;;3.22;79.86;94792.44;5066143;28;20714;-67
2021/03/10 01:15:56;;;;;;;46.60;24.58;;;;;;;3.22;79.99;94793.28;5067430;28;20064;-67
2021/03/10 01:18:22;;;;;;;40.25;22.85;;;;;;;3.11;80.12;94780.88;5068124;28;20055;-67
2021/03/10 01:20:49;;;;;;;40.38;22.88;;;;;;;3.20;80.03;94779.75;5066830;28;20032;-67
2021/03/10 01:23:15;;;;;;;40.38;22.80;;;;;;;3.03;80.82;94757.88;5067278;28;20040;-68
2021/03/10 01:25:42;;;;;;;44.03;25.67;;;;;;;2.98;81.47;94749.91;5065547;28;20071;-67
2021/03/10 01:28:08;;;;;;;42.92;23.02;;;;;;;3.14;82.23;94772.00;5066672;28;20047;-67
2021/03/10 01:30:34;;;;;;;45.53;24.90;;;;;;;3.06;82.91;94767.78;5067213;28;20111;-67
2021/03/10 01:33:01;;;;;;;49.63;25.95;;;;;;;3.05;83.00;94777.28;5067075;28;20082;-67
2021/03/10 01:35:27;;;;;;;46.53;25.38;;;;;;;3.03;82.69;94773.31;5066220;28;20048;-67
2021/03/10 01:37:53;;;;;;;55.13;28.02;;;;;;;3.03;83.24;94773.31;5066998;28;20036;-67
2021/03/10 01:40:20;;;;;;;50.17;24.13;;;;;;;2.94;82.93;94758.97;5066781;28;20032;-67
2021/03/10 01:42:47;;;;;;;53.17;26.02;;;;;;;2.99;83.45;94761.78;5066267;28;20049;-67
2021/03/10 01:45:14;;;;;;;43.22;24.15;;;;;;;2.95;83.89;94750.28;5066385;28;20052;-68
2021/03/10 01:47:46;;;;;;;57.00;26.63;;;;;;;2.97;83.72;94766.31;5067489;28;20421;-67
2021/03/10 01:50:17;;;;;;;51.97;26.92;;;;;;;2.98;84.54;94770.50;5066593;28;20498;-67
2021/03/10 01:52:43;;;;;;;43.88;26.15;;;;;;;2.86;84.21;94744.44;5065882;28;20383;-67
2021/03/10 01:55:10;;;;;;;49.00;25.42;;;;;;;2.90;84.62;94753.41;5066656;28;20539;-67
2021/03/10 01:57:37;;;;;;;44.92;27.05;;;;;;;2.98;84.54;94760.97;5066860;28;20425;-67
2021/03/10 02:00:06;;;;;;;45.08;25.15;;;;;;;2.98;84.50;94760.19;5066234;28;20386;-67
2021/03/10 02:02:38;;;;;;;42.33;24.65;;;;;;;2.94;84.80;94753.84;5066388;28;20052;-67
2021/03/10 02:05:06;;;;;;;39.88;22.85;;;;;;;2.94;84.92;94744.34;5065066;28;20098;-67
2021/03/10 02:08:00;;;;;;;50.92;26.92;;;;;;;2.94;85.18;94743.53;5066866;28;20398;-67
2021/03/10 02:11:03;;;;;;;44.20;24.45;;;;;;;2.91;85.15;94739.56;5065672;28;20043;-68
2021/03/10 02:14:08;;;;;;;48.05;25.02;;;;;;;2.91;85.59;94749.06;5065000;28;20048;-67
2021/03/10 02:16:37;;;;;;;45.13;26.50;;;;;;;2.90;85.68;94737.16;5064231;28;20066;-67
2021/03/10 02:19:31;;;;;;;44.78;24.38;;;;;;;2.87;85.94;94733.97;5065496;28;20040;-67
2021/03/10 02:22:04;;;;;;;38.05;23.13;;;;;;;2.88;85.99;94724.47;5064616;28;20052;-67
2021/03/10 02:24:38;;;;;;;48.17;24.90;;;;;;;2.74;86.40;94712.47;5065617;28;20036;-67
2021/03/10 02:27:58;;;;;;;45.70;24.75;;;;;;;2.83;87.63;94722.47;5061835;28;20055;-67
2021/03/10 02:30:28;;;;;;;43.55;24.17;;;;;;;2.77;88.47;94719.84;5062554;28;20043;-67
2021/03/10 02:32:57;;;;;;;43.63;23.35;;;;;;;2.71;89.22;94708.53;5065238;28;20059;-68
2021/03/10 02:35:27;;;;;;;44.72;25.48;;;;;;;2.72;90.24;94715.25;5064686;28;20044;-67
2021/03/10 02:37:57;;;;;;;45.58;24.35;;;;;;;2.69;90.30;94710.47;5065405;28;20146;-67
2021/03/10 02:40:26;;;;;;;46.83;24.42;;;;;;;2.66;90.88;94715.97;5065561;28;20047;-67
2021/03/10 02:42:53;;;;;;;49.63;26.45;;;;;;;2.63;91.63;94711.22;5066387;28;20048;-67
2021/03/10 02:45:25;;;;;;;47.63;26.95;;;;;;;2.65;90.66;94714.41;5066946;28;20037;-67
2021/03/10 02:47:52;;;;;;;45.15;25.98;;;;;;;2.62;91.19;94709.63;5067240;28;20533;-68
2021/03/10 02:50:20;;;;;;;53.50;27.92;;;;;;;2.49;91.49;94675.09;5065423;28;20409;-68
2021/03/10 02:52:47;;;;;;;54.55;27.80;;;;;;;2.57;91.97;94696.53;5065894;28;20048;-68
2021/03/10 02:55:14;;;;;;;54.05;28.23;;;;;;;2.62;92.29;94705.28;5065492;28;20059;-68
2021/03/10 02:57:41;;;;;;;55.40;29.08;;;;;;;2.59;92.81;94700.53;5065117;28;20387;-67
2021/03/10 03:00:11;;;;;;;58.10;29.98;;;;;;;2.57;93.54;94696.53;5062638;28;20051;-68
2021/03/10 03:02:56;;;;;;;61.88;31.60;;;;;;;2.50;93.69;94696.44;5065892;28;20048;-68
2021/03/10 03:05:41;;;;;;;59.75;28.20;;;;;;;2.48;94.40;94688.94;5065146;28;20174;-67
2021/03/10 03:08:08;;;;;;;58.92;30.38;;;;;;;2.39;95.25;94684.88;5065177;28;20051;-68
2021/03/10 03:10:41;;;;;;;55.00;30.38;;;;;;;2.45;95.04;94689.31;5065165;28;20041;-67
2021/03/10 03:13:15;;;;;;;54.97;28.52;;;;;;;2.44;95.62;94698.00;5065258;28;20045;-68
2021/03/10 03:15:49;;;;;;;56.63;29.83;;;;;;;2.45;96.05;94689.31;5065207;28;20036;-68
2021/03/10 03:18:16;;;;;;;62.38;30.95;;;;;;;2.44;95.57;94682.56;5064705;28;20059;-68
2021/03/10 03:20:43;;;;;;;50.05;28.75;;;;;;;2.45;95.22;94689.31;5063647;28;20037;-68
2021/03/10 03:23:10;;;;;;;63.35;32.83;;;;;;;2.37;95.71;94681.69;5064150;28;20044;-68
2021/03/10 03:25:39;;;;;;;60.78;32.10;;;;;;;2.44;95.60;94687.69;5064775;28;20052;-69
2021/03/10 03:28:09;;;;;;;52.58;29.20;;;;;;;2.43;95.82;94680.16;5063596;28;20041;-69
2021/03/10 03:30:38;;;;;;;63.30;33.53;;;;;;;2.37;96.09;94678.34;5064617;28;20040;-68
2021/03/10 03:33:16;;;;;;;56.47;30.52;;;;;;;2.37;96.06;94675.78;5064873;28;20045;-69
2021/03/10 03:35:44;;;;;;;57.58;29.20;;;;;;;2.34;96.34;94671.81;5065798;28;20067;-69
2021/03/10 03:38:11;;;;;;;54.63;30.33;;;;;;;2.31;96.20;94672.16;5067030;28;20502;-69
2021/03/10 03:40:39;;;;;;;56.58;30.40;;;;;;;2.36;95.83;94692.97;5065254;28;20126;-69
2021/03/10 03:43:10;;;;;;;54.75;28.70;;;;;;;2.34;95.96;94679.53;5064427;28;20052;-69
2021/03/10 03:45:37;;;;;;;52.83;28.00;;;;;;;2.27;96.38;94671.75;5065572;28;20051;-69
2021/03/10 03:48:04;;;;;;;57.40;27.92;;;;;;;2.36;95.98;94695.56;5066918;28;20116;-70
2021/03/10 03:50:31;;;;;;;47.50;27.30;;;;;;;2.29;96.95;94686.97;5065424;28;20045;-69
2021/03/10 03:52:57;;;;;;;49.80;27.00;;;;;;;2.32;96.97;94689.16;5066774;28;20041;-69
2021/03/10 03:55:24;;;;;;;44.22;23.70;;;;;;;2.32;96.35;94689.16;5065783;28;20041;-69
2021/03/10 03:57:50;;;;;;;51.70;25.75;;;;;;;2.31;96.63;94687.59;5065820;28;20072;-69
2021/03/10 04:00:20;;;;;;;88.68;46.58;;;;;;;2.22;97.17;94683.53;5067791;28;20040;-69
2021/03/10 04:02:48;;;;;;;68.85;38.92;;;;;;;2.30;97.16;94691.13;5068024;28;20053;-69
2021/03/10 04:05:16;;;;;;;81.10;42.65;;;;;;;2.23;96.47;94677.41;5069110;28;20465;-69
2021/03/10 04:07:59;;;;;;;59.15;30.90;;;;;;;2.28;96.82;94693.09;5068340;28;20071;-69
2021/03/10 04:10:30;;;;;;;54.42;29.08;;;;;;;2.27;96.35;94691.50;5070344;28;20059;-69
2021/03/10 04:12:58;;;;;;;55.70;29.95;;;;;;;2.30;95.96;94680.84;5068052;28;20040;-69
2021/03/10 04:16:00;;;;;;;59.72;27.73;;;;;;;2.26;96.17;94679.63;5066119;28;20623;-69
2021/03/10 04:18:27;;;;;;;72.75;37.95;;;;;;;2.34;96.33;94689.81;5067513;28;20052;-69
2021/03/10 04:20:53;;;;;;;81.05;44.97;;;;;;;2.30;96.14;94680.84;5066796;28;20071;-69
2021/03/10 04:23:20;;;;;;;61.97;35.72;;;;;;;2.36;96.15;94687.84;5069296;28;20054;-70
2021/03/10 04:25:47;;;;;;;57.55;32.83;;;;;;;2.30;96.20;94675.72;5068656;28;20047;-69
2021/03/10 04:28:13;;;;;;;58.15;31.15;;;;;;;2.33;96.73;94675.34;5067166;28;20141;-69
2021/03/10 04:30:39;;;;;;;74.30;39.03;;;;;;;2.40;96.20;94675.41;5067329;28;20040;-69
2021/03/10 04:33:06;;;;;;;84.32;45.45;;;;;;;2.33;95.55;94664.28;5068524;28;20051;-69
2021/03/10 04:35:32;;;;;;;59.63;34.20;;;;;;;2.33;95.77;94659.94;5068317;28;20040;-69
2021/03/10 04:37:59;;;;;;;56.33;30.85;;;;;;;2.37;95.78;94671.41;5069986;28;20064;-69
2021/03/10 04:40:25;;;;;;;59.80;35.95;;;;;;;2.31;96.22;94656.75;5067547;28;20044;-69
2021/03/10 04:42:52;;;;;;;61.70;37.95;;;;;;;2.38;96.07;94667.88;5069622;28;20043;-69
2021/03/10 04:45:18;;;;;;;58.88;28.77;;;;;;;2.36;95.90;94654.44;5068173;28;20050;-69
2021/03/10 04:47:46;;;;;;;67.53;40.65;;;;;;;2.36;95.57;94664.72;5068042;28;20049;-69
2021/03/10 04:50:14;;;;;;;56.40;31.95;;;;;;;2.28;95.68;94651.97;5071152;28;20050;-69
2021/03/10 04:52:42;;;;;;;65.75;41.47;;;;;;;2.37;95.60;94662.94;5067782;28;20047;-69
2021/03/10 04:55:09;;;;;;;67.75;39.55;;;;;;;2.39;95.46;94664.31;5068452;28;20043;-69
2021/03/10 04:57:39;;;;;;;68.00;38.75;;;;;;;2.39;95.61;94658.41;5066721;28;20071;-69
2021/03/10 05:00:10;;;;;;;62.17;34.70;;;;;;;2.38;95.59;94662.75;5066938;28;20052;-69
2021/03/10 05:02:37;;;;;;;66.93;40.05;;;;;;;2.38;95.45;94657.59;5067980;28;20045;-69
2021/03/10 05:05:06;;;;;;;69.72;43.25;;;;;;;2.37;95.12;94656.00;5067945;28;20052;-70
2021/03/10 05:07:33;;;;;;;59.20;33.17;;;;;;;2.36;95.52;94649.28;5066775;28;20056;-70
2021/03/10 05:10:00;;;;;;;52.67;31.45;;;;;;;2.40;95.78;94653.06;5066455;28;20044;-69
2021/03/10 05:12:30;;;;;;;66.40;37.80;;;;;;;2.39;95.27;94659.19;5066696;28;20040;-69
2021/03/10 05:14:57;;;;;;;61.67;35.83;;;;;;;2.39;95.16;94654.03;5067792;28;20234;-69
2021/03/10 05:17:27;;;;;;;65.00;34.53;;;;;;;2.40;95.12;94655.66;5067560;28;20040;-69
2021/03/10 05:19:55;;;;;;;120.38;64.47;;;;;;;2.40;95.36;94660.78;5066343;28;20426;-69
2021/03/10 05:22:22;;;;;;;100.45;56.22;;;;;;;2.43;95.59;94662.19;5066906;28;20048;-69
2021/03/10 05:24:48;;;;;;;79.07;45.72;;;;;;;2.46;96.17;94667.75;5067182;28;20040;-69
2021/03/10 05:27:15;;;;;;;73.20;41.65;;;;;;;2.32;96.36;94658.31;5067244;28;20044;-69
2021/03/10 05:29:42;;;;;;;68.60;37.58;;;;;;;2.30;96.00;94644.88;5067792;28;20037;-69
2021/03/10 05:32:09;;;;;;;65.15;33.05;;;;;;;2.36;96.42;94659.56;5067433;28;20032;-69
2021/03/10 05:34:36;;;;;;;58.22;30.55;;;;;;;2.30;96.28;94639.72;5067370;28;20052;-69
2021/03/10 05:37:03;;;;;;;66.82;37.40;;;;;;;2.39;96.66;94663.53;5067401;28;20036;-69
2021/03/10 05:39:30;;;;;;;58.13;33.78;;;;;;;2.31;96.66;94651.59;5067071;28;20089;-70
2021/03/10 05:41:57;;;;;;;57.85;31.08;;;;;;;2.33;97.24;94667.63;5066690;28;20060;-70
2021/03/10 05:44:25;;;;;;;64.65;32.80;;;;;;;2.28;97.77;94663.03;5068173;28;20120;-70
2021/03/10 05:46:54;;;;;;;56.63;32.03;;;;;;;2.27;98.54;94650.41;5066580;28;20040;-69
2021/03/10 05:49:21;;;;;;;54.67;31.58;;;;;;;2.29;98.20;94658.72;5067163;28;20045;-69
2021/03/10 05:51:51;;;;;;;52.17;29.77;;;;;;;2.29;97.96;94663.84;5065786;28;20029;-70
2021/03/10 05:54:20;;;;;;;59.95;32.55;;;;;;;2.22;98.02;94642.44;5066386;28;20040;-70
2021/03/10 05:56:48;;;;;;;51.90;30.55;;;;;;;2.23;98.24;94644.81;5067091;28;20052;-70
2021/03/10 05:59:14;;;;;;;54.45;31.15;;;;;;;2.30;98.32;94655.16;5066149;28;20036;-70
2021/03/10 06:01:40;;;;;;;54.17;31.73;;;;;;;2.28;98.44;94667.38;5068697;28;20032;-70
2021/03/10 06:04:07;;;;;;;60.72;34.15;;;;;;;2.18;98.92;94646.31;5066629;28;20040;-69
2021/03/10 06:06:41;;;;;;;55.28;32.95;;;;;;;2.27;98.18;94655.53;5068316;28;20059;-70
2021/03/10 06:09:21;;;;;;;58.13;31.15;;;;;;;2.15;98.45;94641.56;5067699;28;20044;-70
2021/03/10 06:11:58;;;;;;;55.65;31.25;;;;;;;2.10;99.13;94640.31;5068357;28;20037;-70
2021/03/10 06:14:25;;;;;;;59.08;33.80;;;;;;;2.25;99.00;94665.19;5066228;28;20055;-70
2021/03/10 06:17:06;;;;;;;62.03;33.15;;;;;;;2.17;99.07;94660.97;5067348;28;20041;-70
2021/03/10 06:19:46;;;;;;;54.67;31.90;;;;;;;2.24;99.77;94655.88;5070043;28;20040;-70
2021/03/10 06:22:14;;;;;;;58.63;34.03;;;;;;;2.24;99.73;94666.16;5067078;28;20041;-70
2021/03/10 06:24:41;;;;;;;56.25;32.20;;;;;;;2.10;99.73;94658.31;5067140;28;20044;-70
2021/03/10 06:27:08;;;;;;;59.58;31.83;;;;;;;2.15;100.00;94662.13;5066371;28;20048;-69
2021/03/10 06:29:35;;;;;;;58.30;30.98;;;;;;;2.14;100.00;94665.66;5066936;28;20032;-70
2021/03/10 06:32:06;;;;;;;51.00;29.75;;;;;;;2.12;100.00;94665.06;5066439;28;20506;-70
2021/03/10 06:34:47;;;;;;;50.42;28.40;;;;;;;2.02;100.00;94663.56;5068516;28;20044;-70
2021/03/10 06:37:28;;;;;;;56.13;32.13;;;;;;;1.98;100.00;94662.34;5067284;28;20052;-71
2021/03/10 06:40:14;;;;;;;63.22;35.13;;;;;;;1.95;100.00;94667.84;5068952;28;20105;-71
2021/03/10 06:42:51;;;;;;;61.42;34.33;;;;;;;1.85;100.00;94647.56;5068346;28;20041;-71
2021/03/10 06:45:28;;;;;;;56.33;31.30;;;;;;;1.96;100.00;94668.63;5065809;28;20048;-71
2021/03/10 06:47:55;;;;;;;50.58;29.08;;;;;;;2.00;100.00;94673.25;5067587;28;20509;-70
2021/03/10 06:50:36;;;;;;;63.45;35.33;;;;;;;1.94;100.00;94661.09;5068712;28;20548;-69
2021/03/10 06:53:03;;;;;;;57.90;32.90;;;;;;;1.99;100.00;94669.06;5068428;28;20047;-69
2021/03/10 06:55:37;;;;;;;63.17;32.92;;;;;;;1.98;100.00;94662.34;5069126;28;20036;-70
2021/03/10 06:58:05;;;;;;;63.45;35.30;;;;;;;2.05;100.00;94673.50;5067654;28;20106;-69
2021/03/10 07:00:32;;;;;;;68.07;34.42;;;;;;;2.06;100.00;94675.06;5066872;28;20064;-69
2021/03/10 07:03:02;;;;;;;65.25;35.38;;;;;;;2.10;100.00;94666.03;5067393;28;20417;-69
2021/03/10 07:05:31;;;;;;;55.25;32.80;;;;;;;2.07;100.00;94670.72;5065774;28;20054;-69
2021/03/10 07:07:59;;;;;;;58.38;34.00;;;;;;;2.07;100.00;94674.13;5066291;28;20037;-68
2021/03/10 07:10:27;;;;;;;66.53;37.42;;;;;;;2.10;100.00;94678.06;5066925;28;20044;-69
2021/03/10 07:12:58;;;;;;;59.15;32.42;;;;;;;2.12;100.00;94675.34;5062073;28;20047;-69
2021/03/10 07:15:26;;;;;;;55.88;33.30;;;;;;;2.10;100.00;94676.28;5074274;28;20048;-68
2021/03/10 07:17:53;;;;;;;62.40;33.10;;;;;;;2.04;100.00;94656.47;5060744;28;20054;-69
2021/03/10 07:20:21;;;;;;;51.55;29.63;;;;;;;2.12;100.00;94676.13;5065587;28;20091;-69
2021/03/10 07:23:06;;;;;;;54.20;31.38;;;;;;;2.15;100.00;94672.41;5066703;28;20115;-69
2021/03/10 07:25:35;;;;;;;65.50;33.22;;;;;;;2.10;100.00;94672.94;5066005;28;20051;-69
2021/03/10 07:28:05;;;;;;;54.90;32.53;;;;;;;2.16;100.00;94668.84;5067027;28;20074;-69
2021/03/10 07:30:48;;;;;;;63.40;34.65;;;;;;;2.16;100.00;94673.97;5060428;28;20059;-69
2021/03/10 07:33:17;;;;;;;65.55;32.88;;;;;;;2.17;100.00;94670.44;5065356;28;20045;-69
2021/03/10 07:35:52;;;;;;;64.07;34.85;;;;;;;2.18;100.00;94675.41;5066051;28;20055;-69
2021/03/10 07:38:20;;;;;;;60.20;33.42;;;;;;;2.20;100.00;94676.00;5072580;28;20033;-70
2021/03/10 07:41:00;;;;;;;64.63;35.13;;;;;;;2.18;100.00;94679.72;5072063;28;20585;-71
2021/03/10 07:43:39;;;;;;;57.13;32.78;;;;;;;2.12;100.00;94683.03;5075368;28;20528;-73
2021/03/10 07:46:29;;;;;;;57.22;30.42;;;;;;;2.09;100.00;94679.84;5074926;28;20119;-71
2021/03/10 07:48:57;;;;;;;62.97;33.83;;;;;;;1.99;100.00;94658.78;5073124;28;20053;-71
2021/03/10 07:51:34;;;;;;;66.25;34.08;;;;;;;2.00;100.00;94665.53;5072161;28;20394;-71
2021/03/10 07:54:24;;;;;;;64.85;34.03;;;;;;;2.05;100.00;94675.25;5072775;28;20041;-71
2021/03/10 07:57:03;;;;;;;62.72;32.33;;;;;;;2.08;100.00;94675.69;5074480;28;20037;-71
2021/03/10 07:59:29;;;;;;;58.65;33.92;;;;;;;2.04;100.00;94666.75;5076345;28;20041;-70
2021/03/10 08:02:04;;;;;;;73.75;37.45;;;;;;;2.12;100.00;94672.75;5074461;28;20051;-71
2021/03/10 08:04:31;;;;;;;63.38;35.42;;;;;;;2.10;100.00;94666.03;5071978;28;20037;-70
2021/03/10 08:06:58;;;;;;;66.07;36.65;;;;;;;2.13;100.00;94669.22;5071874;28;20520;-71
2021/03/10 08:09:27;;;;;;;67.30;36.03;;;;;;;2.10;100.00;94665.22;5073992;28;20084;-70
2021/03/10 08:12:06;;;;;;;59.63;32.83;;;;;;;2.12;100.00;94667.63;5071035;28;20047;-71
2021/03/10 08:14:41;;;;;;;64.03;35.88;;;;;;;2.08;100.00;94662.84;5074057;28;20119;-70
2021/03/10 08:17:08;;;;;;;81.95;45.40;;;;;;;2.14;100.00;94663.09;5071562;28;20116;-71
2021/03/10 08:19:36;;;;;;;64.68;35.28;;;;;;;2.08;100.00;94656.91;5074818;28;20460;-70
2021/03/10 08:22:03;;;;;;;59.85;33.00;;;;;;;2.12;100.00;94657.34;5070601;28;20133;-71
2021/03/10 08:24:30;;;;;;;68.90;36.78;;;;;;;2.03;100.00;94639.47;5068734;28;20040;-71
2021/03/10 08:27:00;;;;;;;74.07;40.95;;;;;;;2.06;100.00;94659.66;5065022;28;20047;-72
2021/03/10 08:29:27;;;;;;;65.25;35.83;;;;;;;2.15;100.00;94668.06;5065750;28;20058;-72
2021/03/10 08:31:56;;;;;;;62.95;32.33;;;;;;;2.03;100.00;94660.03;5066847;28;20044;-71
2021/03/10 08:34:31;;;;;;;66.40;31.63;;;;;;;2.10;100.00;94660.88;5066674;28;20056;-71
2021/03/10 08:36:58;;;;;;;69.03;35.83;;;;;;;2.09;100.00;94659.31;5069023;28;20051;-71
2021/03/10 08:39:25;;;;;;;67.55;36.55;;;;;;;2.06;100.00;94644.25;5069082;28;20037;-70
2021/03/10 08:41:57;;;;;;;74.10;35.92;;;;;;;2.12;100.00;94641.94;5067282;28;20494;-71
2021/03/10 08:44:25;;;;;;;70.68;38.40;;;;;;;2.15;100.00;94639.00;5064976;28;20166;-71
2021/03/10 08:46:54;;;;;;;69.00;37.10;;;;;;;2.08;100.00;94641.50;5064287;28;20040;-71
2021/03/10 08:49:24;;;;;;;63.55;35.47;;;;;;;2.19;100.00;94647.94;5068027;28;20075;-71
2021/03/10 08:52:13;;;;;;;79.70;46.25;;;;;;;2.09;100.00;94654.16;5065302;28;20172;-71
2021/03/10 08:54:47;;;;;;;73.28;37.22;;;;;;;2.19;100.00;94659.00;5081491;28;20425;-71
2021/03/10 08:57:19;;;;;;;87.22;44.05;;;;;;;2.22;100.00;94655.28;5069136;28;20036;-71
2021/03/10 08:59:45;;;;;;;92.68;44.78;;;;;;;2.20;100.00;94636.69;5068871;28;20040;-71
2021/03/10 09:02:13;;;;;;;77.25;40.20;;;;;;;2.30;100.00;94644.88;5066118;28;20051;-71
2021/03/10 09:04:48;;;;;;;62.50;33.20;;;;;;;2.19;100.00;94647.94;5068081;28;20055;-70
2021/03/10 09:07:20;;;;;;;66.88;35.00;;;;;;;2.13;100.00;94643.53;5069258;28;20060;-70
2021/03/10 09:09:53;;;;;;;62.30;33.47;;;;;;;2.07;100.00;94639.91;5065897;28;20402;-71
2021/03/10 09:12:20;;;;;;;68.47;34.67;;;;;;;2.05;100.00;94639.28;5067783;28;20111;-71
2021/03/10 09:14:51;;;;;;;56.30;29.85;;;;;;;2.10;100.00;94635.19;5066850;28;20051;-71
2021/03/10 09:17:32;;;;;;;57.97;31.50;;;;;;;2.20;100.00;94628.97;5051006;28;20135;-71
2021/03/10 09:20:02;;;;;;;57.00;31.30;;;;;;;2.20;100.00;94645.19;5066858;28;20048;-71
2021/03/10 09:22:43;;;;;;;61.85;32.25;;;;;;;2.24;100.00;94640.47;5050587;28;20515;-70
2021/03/10 09:25:24;;;;;;;60.58;31.73;;;;;;;2.21;100.00;94640.84;5065980;28;20048;-70
2021/03/10 09:28:06;;;;;;;;;;;;;;;2.25;100.00;94642.03;5064731;28;20080;-70
2021/03/10 09:30:39;;;;;;;49.40;26.65;;;;;;;2.25;100.00;94636.91;5068279;28;19927;-70
2021/03/10 09:33:23;;;;;;;50.92;27.85;;;;;;;2.15;100.00;94641.56;5065505;28;20550;-70
2021/03/10 09:35:52;;;;;;;46.47;26.95;;;;;;;2.10;100.00;94635.19;5065910;28;20242;-70
2021/03/10 09:38:21;;;;;;;43.67;24.95;;;;;;;2.20;100.00;94644.41;5067746;28;20110;-71
2021/03/10 09:41:06;;;;;;;40.40;24.35;;;;;;;2.10;100.00;94630.06;5065800;28;20054;-70
2021/03/10 09:43:36;;;;;;;42.38;22.98;;;;;;;2.15;100.00;94639.00;5066383;28;20044;-69
2021/03/10 09:46:09;;;;;;;33.28;20.42;;;;;;;2.27;100.00;94645.25;5063930;28;20051;-69
2021/03/10 09:48:41;;;;;;;39.50;18.85;;;;;;;2.25;100.00;94647.19;5061928;28;20824;-69
2021/03/10 09:51:27;;;;;;;32.60;20.55;;;;;;;2.34;100.00;94635.81;5064477;28;20051;-70
2021/03/10 09:53:58;;;;;;;38.42;25.00;;;;;;;2.33;100.00;94634.22;5065053;28;20044;-71
2021/03/10 09:56:33;;;;;;;27.60;16.92;;;;;;;2.36;100.00;94639.00;5066755;28;20052;-69
2021/03/10 09:59:03;;;;;;;24.45;15.38;;;;;;;2.35;100.00;94632.25;5065068;28;20063;-69
2021/03/10 10:01:46;;;;;;;21.83;12.50;;;;;;;2.34;100.00;94630.69;5066148;28;20140;-70
2021/03/10 10:04:35;;;;;;;23.58;14.20;;;;;;;2.37;100.00;94625.16;5065220;28;20131;-70
2021/03/10 10:07:07;;;;;;;21.08;14.65;;;;;;;2.42;100.00;94627.97;5062739;28;20060;-70
2021/03/10 10:09:55;;;;;;;22.30;12.52;;;;;;;2.48;100.00;94629.81;5066978;28;20052;-70
2021/03/10 10:12:46;;;;;;;16.45;11.80;;;;;;;2.62;100.00;94642.78;5059339;28;20049;-70
2021/03/10 10:15:18;;;;;;;24.27;14.38;;;;;;;2.62;100.00;94632.47;5064720;28;20037;-70
2021/03/10 10:17:55;;;;;;;35.67;20.55;;;;;;;2.57;100.00;94624.53;5064048;28;20048;-70
2021/03/10 10:20:28;;;;;;;24.42;19.13;;;;;;;2.64;100.00;94636.44;5064525;28;20041;-69
2021/03/10 10:23:00;;;;;;;34.55;22.92;;;;;;;2.66;100.00;94623.41;5048007;28;20078;-68
2021/03/10 10:25:35;;;;;;;28.17;19.75;;;;;;;2.77;100.00;94625.47;5066182;28;20044;-70
2021/03/10 10:28:06;;;;;;;22.13;15.82;;;;;;;2.75;100.00;94626.66;5067280;28;20125;-70
2021/03/10 10:30:34;;;;;;;19.73;14.23;;;;;;;2.76;100.00;94629.03;5064909;28;20032;-70
2021/03/10 10:33:01;;;;;;;30.45;20.67;;;;;;;2.76;100.00;94613.59;5067139;28;20452;-70
2021/03/10 10:35:32;;;;;;;36.92;25.67;;;;;;;2.75;100.00;94622.28;5067777;28;20072;-70
2021/03/10 10:37:59;;;;;;;19.98;12.02;;;;;;;2.81;100.00;94621.56;5068923;28;20060;-69
2021/03/10 10:40:25;;;;;;;17.42;10.45;;;;;;;2.65;100.00;94606.41;5069167;28;20139;-69
2021/03/10 10:43:15;;;;;;;16.75;9.32;;;;;;;2.62;100.00;94627.34;5066315;28;20522;-69
2021/03/10 10:45:45;;;;;;;17.02;11.32;;;;;;;2.66;100.00;94623.41;5068035;28;20512;-69
2021/03/10 10:48:13;;;;;;;26.98;16.60;;;;;;;2.85;100.00;94627.91;5064786;28;20048;-69
2021/03/10 10:50:52;;;;;;;24.33;16.50;;;;;;;2.93;100.00;94623.59;5062163;28;20098;-69
2021/03/10 10:53:21;;;;;;;22.45;15.40;;;;;;;3.01;100.00;94631.97;5048730;28;20040;-69
2021/03/10 10:55:47;;;;;;;25.63;15.25;;;;;;;2.98;100.00;94626.41;5066149;28;20076;-69
2021/03/10 10:58:14;;;;;;;28.42;16.05;;;;;;;2.87;100.00;94625.16;5067053;28;20068;-69
2021/03/10 11:00:42;;;;;;;15.05;10.73;;;;;;;3.09;100.00;94618.16;5064691;28;20051;-69
2021/03/10 11:03:12;;;;;;;20.02;12.38;;;;;;;3.14;100.00;94620.97;5066085;28;20040;-69
2021/03/10 11:05:45;;;;;;;28.65;16.40;;;;;;;3.25;99.55;94623.00;5065732;28;20124;-69
2021/03/10 11:08:13;;;;;;;26.90;18.38;;;;;;;3.28;98.66;94615.88;5066291;28;20041;-68
2021/03/10 11:10:40;;;;;;;16.20;11.00;;;;;;;3.19;98.42;94610.91;5066897;28;20040;-69
2021/03/10 11:13:11;;;;;;;16.90;9.35;;;;;;;3.31;97.33;94598.25;5067002;28;20044;-68
2021/03/10 11:15:47;;;;;;;15.02;10.77;;;;;;;3.23;96.25;94591.50;5071476;28;20049;-68
2021/03/10 11:18:32;;;;;;;16.08;10.98;;;;;;;3.34;95.77;94609.97;5069318;28;20417;-69
2021/03/10 11:20:58;;;;;;;16.60;12.32;;;;;;;3.17;96.35;94605.16;5076966;28;20115;-67
2021/03/10 11:23:26;;;;;;;16.88;10.88;;;;;;;3.25;96.16;94597.25;5072950;28;20052;-67
2021/03/10 11:25:52;;;;;;;25.88;12.40;;;;;;;3.31;95.75;94600.06;5070074;28;20044;-67
2021/03/10 11:28:19;;;;;;;23.40;13.68;;;;;;;3.46;95.66;94608.44;5065610;28;20068;-68
2021/03/10 11:30:47;;;;;;;24.08;13.90;;;;;;;3.36;95.29;94602.84;5068191;28;20341;-68
2021/03/10 11:33:18;;;;;;;29.88;16.63;;;;;;;3.38;95.12;94608.59;5067304;28;20048;-67
2021/03/10 11:35:46;;;;;;;22.50;14.05;;;;;;;3.36;94.29;94602.84;5069133;28;20041;-68
2021/03/10 11:38:13;;;;;;;19.90;14.18;;;;;;;3.21;93.58;94606.34;5069350;28;20127;-67